createdAt,value
2023-03-22T00:32:26.871Z,0.30
2023-03-22T00:40:51.271Z,0.21
2023-03-22T00:49:39.750Z,0.26
2023-03-22T00:58:26.708Z,0.36
2023-03-22T01:06:52.087Z,0.52
2023-03-22T01:15:26.600Z,0.83
2023-03-22T01:24:01.851Z,1.02
2023-03-22T01:33:13.476Z,1.06
2023-03-22T01:42:31.097Z,0.97
2023-03-22T01:51:30.886Z,0.95
2023-03-22T02:00:29.060Z,0.98
2023-03-22T02:09:34.363Z,0.94
2023-03-22T02:19:03.878Z,0.99
2023-03-22T02:28:09.366Z,0.95
2023-03-22T02:37:09.079Z,0.83
2023-03-22T02:46:14.492Z,0.76
2023-03-22T02:55:28.642Z,0.76
2023-03-22T03:05:10.402Z,0.64
2023-03-22T03:14:51.397Z,0.60
2023-03-22T03:23:38.455Z,0.62
2023-03-22T03:32:40.267Z,0.55
2023-03-22T03:41:53.425Z,0.57
2023-03-22T03:51:12.344Z,0.56
2023-03-22T03:59:49.333Z,0.46
2023-03-22T04:08:36.909Z,0.31
2023-03-22T04:17:48.312Z,0.20
2023-03-22T04:26:36.552Z,0.16
2023-03-22T04:35:39.768Z,0.14
2023-03-22T04:44:17.607Z,0.16
2023-03-22T04:53:27.587Z,0.07
2023-03-22T05:03:36.861Z,0.16
2023-03-22T05:12:24.465Z,0.23
2023-03-22T05:21:20.626Z,0.30
2023-03-22T05:30:28.592Z,0.54
2023-03-22T05:39:55.872Z,0.78
2023-03-22T05:48:54.648Z,0.91
2023-03-22T05:57:21.819Z,1.17
2023-03-22T06:05:46.747Z,1.60
2023-03-22T06:14:11.254Z,2.00
2023-03-22T06:22:59.449Z,2.33
2023-03-22T06:31:23.002Z,2.78
2023-03-22T06:39:51.920Z,3.17
2023-03-22T06:48:16.146Z,3.63
2023-03-22T06:56:49.249Z,4.20
2023-03-22T07:05:13.241Z,4.55
2023-03-22T07:13:38.255Z,5.12
2023-03-22T07:22:05.840Z,5.65
2023-03-22T07:30:29.058Z,5.91
2023-03-22T07:38:52.704Z,6.12
2023-03-22T07:47:37.824Z,6.54
2023-03-22T07:56:14.785Z,7.00
2023-03-22T08:04:38.197Z,7.41
2023-03-22T08:13:19.919Z,7.99
2023-03-22T08:21:43.423Z,8.45
2023-03-22T08:30:18.368Z,8.71
2023-03-22T08:38:42.623Z,8.85
2023-03-22T08:47:06.422Z,8.77
2023-03-22T08:55:30.196Z,8.70
2023-03-22T09:03:59.452Z,8.60
2023-03-22T09:12:23.393Z,8.94
2023-03-22T09:20:46.979Z,9.26
2023-03-22T09:29:11.079Z,9.87
2023-03-22T09:37:36.222Z,10.29
2023-03-22T09:46:00.750Z,10.77
2023-03-22T09:54:35.965Z,11.39
2023-03-22T10:03:13.086Z,12.96
2023-03-22T10:12:05.319Z,14.07
2023-03-22T10:20:44.199Z,14.41
2023-03-22T10:29:22.434Z,14.61
2023-03-22T10:37:48.558Z,14.17
2023-03-22T10:46:25.107Z,13.93
2023-03-22T10:54:48.282Z,14.27
2023-03-22T11:03:27.585Z,15.08
2023-03-22T11:11:59.509Z,15.75
2023-03-22T11:20:23.206Z,16.08
2023-03-22T11:28:50.938Z,15.77
2023-03-22T11:37:18.219Z,16.64
2023-03-22T11:45:44.375Z,18.90
2023-03-22T11:54:20.802Z,18.93
2023-03-22T12:02:49.829Z,16.42
2023-03-22T12:11:28.567Z,14.92
2023-03-22T12:20:21.886Z,14.14
2023-03-22T12:28:56.564Z,13.82
2023-03-22T12:37:31.436Z,13.54
2023-03-22T12:45:59.471Z,13.45
2023-03-22T12:54:25.834Z,13.49
2023-03-22T13:03:11.472Z,13.56
2023-03-22T13:11:35.384Z,14.12
2023-03-22T13:20:27.125Z,14.82
2023-03-22T13:28:58.452Z,16.56
2023-03-22T13:37:31.229Z,18.72
2023-03-22T13:46:09.736Z,19.34
2023-03-22T13:54:42.572Z,21.66
2023-03-22T14:03:16.064Z,22.60
2023-03-22T14:11:44.052Z,19.58
2023-03-22T14:20:12.256Z,18.22
